sensor_id;sensor_type;location;lat;lon;timestamp;temperature;humidity
4279;DHT22;2153;47.744;10.580;2024-01-06T00:00:31;1.20;99.90
4279;DHT22;2153;47.744;10.580;2024-01-06T00:02:58;1.20;99.90
4279;DHT22;2153;47.744;10.580;2024-01-06T00:05:26;1.20;99.90
4279;DHT22;2153;47.744;10.580;2024-01-06T00:07:53;1.20;99.90
4279;DHT22;2153;47.744;10.580;2024-01-06T00:10:20;1.20;99.90
4279;DHT22;2153;47.744;10.580;2024-01-06T00:12:46;1.20;99.90
4279;DHT22;2153;47.744;10.580;2024-01-06T00:15:14;1.20;99.90
4279;DHT22;2153;47.744;10.580;2024-01-06T00:17:40;1.20;99.90
4279;DHT22;2153;47.744;10.580;2024-01-06T00:20:08;1.10;99.90
4279;DHT22;2153;47.744;10.580;2024-01-06T00:22:36;1.10;99.90
4279;DHT22;2153;47.744;10.580;2024-01-06T00:25:03;1.10;99.90
4279;DHT22;2153;47.744;10.580;2024-01-06T00:27:29;1.10;99.90
4279;DHT22;2153;47.744;10.580;2024-01-06T00:29:56;1.20;99.90
4279;DHT22;2153;47.744;10.580;2024-01-06T00:32:23;1.10;99.90
4279;DHT22;2153;47.744;10.580;2024-01-06T00:34:50;1.10;99.90
4279;DHT22;2153;47.744;10.580;2024-01-06T00:37:16;1.10;99.90
4279;DHT22;2153;47.744;10.580;2024-01-06T00:39:44;1.10;99.90
4279;DHT22;2153;47.744;10.580;2024-01-06T00:42:11;1.10;99.90
4279;DHT22;2153;47.744;10.580;2024-01-06T00:44:38;1.10;99.90
4279;DHT22;2153;47.744;10.580;2024-01-06T00:47:04;1.10;99.90
4279;DHT22;2153;47.744;10.580;2024-01-06T00:49:31;1.10;99.90
4279;DHT22;2153;47.744;10.580;2024-01-06T00:51:58;1.00;99.90
4279;DHT22;2153;47.744;10.580;2024-01-06T00:54:24;1.00;99.90
4279;DHT22;2153;47.744;10.580;2024-01-06T00:56:52;1.00;99.90
4279;DHT22;2153;47.744;10.580;2024-01-06T00:59:19;1.00;99.90
4279;DHT22;2153;47.744;10.580;2024-01-06T01:01:45;1.00;99.90
4279;DHT22;2153;47.744;10.580;2024-01-06T01:04:12;1.00;99.90
4279;DHT22;2153;47.744;10.580;2024-01-06T01:06:39;1.00;99.90
4279;DHT22;2153;47.744;10.580;2024-01-06T01:09:05;1.10;99.90
4279;DHT22;2153;47.744;10.580;2024-01-06T01:11:34;1.10;99.90
4279;DHT22;2153;47.744;10.580;2024-01-06T01:14:02;1.00;99.90
4279;DHT22;2153;47.744;10.580;2024-01-06T01:16:29;1.00;99.90
4279;DHT22;2153;47.744;10.580;2024-01-06T01:18:57;1.00;99.90
4279;DHT22;2153;47.744;10.580;2024-01-06T01:21:24;1.00;99.90
4279;DHT22;2153;47.744;10.580;2024-01-06T01:23:51;1.10;99.90
4279;DHT22;2153;47.744;10.580;2024-01-06T01:26:17;1.10;99.90
4279;DHT22;2153;47.744;10.580;2024-01-06T01:28:44;1.00;99.90
4279;DHT22;2153;47.744;10.580;2024-01-06T01:31:12;1.00;99.90
4279;DHT22;2153;47.744;10.580;2024-01-06T01:33:39;1.00;99.90
4279;DHT22;2153;47.744;10.580;2024-01-06T01:36:06;1.10;99.90
4279;DHT22;2153;47.744;10.580;2024-01-06T01:38:32;1.00;99.90
4279;DHT22;2153;47.744;10.580;2024-01-06T01:40:59;1.00;99.90
4279;DHT22;2153;47.744;10.580;2024-01-06T01:43:26;1.00;99.90
4279;DHT22;2153;47.744;10.580;2024-01-06T01:45:54;1.00;99.90
4279;DHT22;2153;47.744;10.580;2024-01-06T01:48:23;1.00;99.90
4279;DHT22;2153;47.744;10.580;2024-01-06T01:50:52;1.00;99.90
4279;DHT22;2153;47.744;10.580;2024-01-06T01:53:19;1.00;99.90
4279;DHT22;2153;47.744;10.580;2024-01-06T01:55:47;1.00;99.90
4279;DHT22;2153;47.744;10.580;2024-01-06T01:58:16;0.90;99.90
4279;DHT22;2153;47.744;10.580;2024-01-06T02:00:42;0.90;99.90
4279;DHT22;2153;47.744;10.580;2024-01-06T02:03:10;0.90;99.90
4279;DHT22;2153;47.744;10.580;2024-01-06T02:05:39;0.90;99.90
4279;DHT22;2153;47.744;10.580;2024-01-06T02:08:06;0.90;99.90
4279;DHT22;2153;47.744;10.580;2024-01-06T02:10:32;0.90;99.90
4279;DHT22;2153;47.744;10.580;2024-01-06T02:13:07;0.90;99.90
4279;DHT22;2153;47.744;10.580;2024-01-06T02:15:34;0.90;99.90
4279;DHT22;2153;47.744;10.580;2024-01-06T02:18:01;0.90;99.90
4279;DHT22;2153;47.744;10.580;2024-01-06T02:20:28;0.90;99.90
4279;DHT22;2153;47.744;10.580;2024-01-06T02:22:57;0.90;99.90
4279;DHT22;2153;47.744;10.580;2024-01-06T02:25:26;0.90;99.90
4279;DHT22;2153;47.744;10.580;2024-01-06T02:27:53;0.90;99.90
4279;DHT22;2153;47.744;10.580;2024-01-06T02:30:19;0.90;99.90
4279;DHT22;2153;47.744;10.580;2024-01-06T02:32:46;0.90;99.90
4279;DHT22;2153;47.744;10.580;2024-01-06T02:35:13;0.90;99.90
4279;DHT22;2153;47.744;10.580;2024-01-06T02:37:39;0.90;99.90
4279;DHT22;2153;47.744;10.580;2024-01-06T02:40:09;0.90;99.90
4279;DHT22;2153;47.744;10.580;2024-01-06T02:42:36;0.90;99.90
4279;DHT22;2153;47.744;10.580;2024-01-06T02:45:03;0.90;99.90
4279;DHT22;2153;47.744;10.580;2024-01-06T02:47:30;0.90;99.90
4279;DHT22;2153;47.744;10.580;2024-01-06T02:49:56;0.90;99.90
4279;DHT22;2153;47.744;10.580;2024-01-06T02:52:23;0.80;99.90
4279;DHT22;2153;47.744;10.580;2024-01-06T02:54:50;0.80;99.90
4279;DHT22;2153;47.744;10.580;2024-01-06T02:57:18;0.80;99.90
4279;DHT22;2153;47.744;10.580;2024-01-06T02:59:44;0.80;99.90
4279;DHT22;2153;47.744;10.580;2024-01-06T03:02:11;0.80;99.90
4279;DHT22;2153;47.744;10.580;2024-01-06T03:04:38;0.80;99.90
4279;DHT22;2153;47.744;10.580;2024-01-06T03:07:05;0.80;99.90
4279;DHT22;2153;47.744;10.580;2024-01-06T03:09:31;0.80;99.90
4279;DHT22;2153;47.744;10.580;2024-01-06T03:11:58;0.90;99.90
4279;DHT22;2153;47.744;10.580;2024-01-06T03:14:26;0.80;99.90
4279;DHT22;2153;47.744;10.580;2024-01-06T03:16:52;0.90;99.90
4279;DHT22;2153;47.744;10.580;2024-01-06T03:19:19;0.90;99.90
4279;DHT22;2153;47.744;10.580;2024-01-06T03:21:46;0.80;99.90
4279;DHT22;2153;47.744;10.580;2024-01-06T03:24:12;0.80;99.90
4279;DHT22;2153;47.744;10.580;2024-01-06T03:26:39;0.80;99.90
4279;DHT22;2153;47.744;10.580;2024-01-06T03:29:06;0.80;99.90
4279;DHT22;2153;47.744;10.580;2024-01-06T03:31:34;0.80;99.90
4279;DHT22;2153;47.744;10.580;2024-01-06T03:34:00;0.80;99.90
4279;DHT22;2153;47.744;10.580;2024-01-06T03:36:27;0.80;99.90
4279;DHT22;2153;47.744;10.580;2024-01-06T03:38:53;0.80;99.90
4279;DHT22;2153;47.744;10.580;2024-01-06T03:41:20;0.80;99.90
4279;DHT22;2153;47.744;10.580;2024-01-06T03:43:47;0.80;99.90
4279;DHT22;2153;47.744;10.580;2024-01-06T03:46:14;0.80;99.90
4279;DHT22;2153;47.744;10.580;2024-01-06T03:48:42;0.80;99.90
4279;DHT22;2153;47.744;10.580;2024-01-06T03:51:10;0.80;99.90
4279;DHT22;2153;47.744;10.580;2024-01-06T03:53:37;0.80;99.90
4279;DHT22;2153;47.744;10.580;2024-01-06T03:56:04;0.80;99.90
4279;DHT22;2153;47.744;10.580;2024-01-06T03:58:31;0.80;99.90
4279;DHT22;2153;47.744;10.580;2024-01-06T04:00:57;0.80;99.90
4279;DHT22;2153;47.744;10.580;2024-01-06T04:03:24;0.80;99.90
4279;DHT22;2153;47.744;10.580;2024-01-06T04:05:53;0.80;99.90
4279;DHT22;2153;47.744;10.580;2024-01-06T04:08:18;0.80;99.90
4279;DHT22;2153;47.744;10.580;2024-01-06T04:10:45;0.80;99.90
4279;DHT22;2153;47.744;10.580;2024-01-06T04:13:12;0.80;99.90
4279;DHT22;2153;47.744;10.580;2024-01-06T04:15:38;0.80;99.90
4279;DHT22;2153;47.744;10.580;2024-01-06T04:18:05;0.80;99.90
4279;DHT22;2153;47.744;10.580;2024-01-06T04:20:32;0.80;99.90
4279;DHT22;2153;47.744;10.580;2024-01-06T04:23:00;0.70;99.90
4279;DHT22;2153;47.744;10.580;2024-01-06T04:25:27;0.70;99.90
4279;DHT22;2153;47.744;10.580;2024-01-06T04:27:54;0.70;99.90
4279;DHT22;2153;47.744;10.580;2024-01-06T04:30:20;0.80;99.90
4279;DHT22;2153;47.744;10.580;2024-01-06T04:32:47;0.80;99.90
4279;DHT22;2153;47.744;10.580;2024-01-06T04:35:14;0.80;99.90
4279;DHT22;2153;47.744;10.580;2024-01-06T04:37:41;0.70;99.90
4279;DHT22;2153;47.744;10.580;2024-01-06T04:40:10;0.70;99.90
4279;DHT22;2153;47.744;10.580;2024-01-06T04:42:37;0.70;99.90
4279;DHT22;2153;47.744;10.580;2024-01-06T04:45:05;0.70;99.90
4279;DHT22;2153;47.744;10.580;2024-01-06T04:47:32;0.70;99.90
4279;DHT22;2153;47.744;10.580;2024-01-06T04:49:58;0.70;99.90
4279;DHT22;2153;47.744;10.580;2024-01-06T04:52:25;0.80;99.90
4279;DHT22;2153;47.744;10.580;2024-01-06T04:54:52;0.80;99.90
4279;DHT22;2153;47.744;10.580;2024-01-06T04:57:20;0.70;99.90
4279;DHT22;2153;47.744;10.580;2024-01-06T04:59:47;0.70;99.90
4279;DHT22;2153;47.744;10.580;2024-01-06T05:02:13;0.70;99.90
4279;DHT22;2153;47.744;10.580;2024-01-06T05:04:40;0.70;99.90
4279;DHT22;2153;47.744;10.580;2024-01-06T05:07:07;0.70;99.90
4279;DHT22;2153;47.744;10.580;2024-01-06T05:09:33;0.70;99.90
4279;DHT22;2153;47.744;10.580;2024-01-06T05:12:00;0.80;99.90
4279;DHT22;2153;47.744;10.580;2024-01-06T05:14:28;0.70;99.90
4279;DHT22;2153;47.744;10.580;2024-01-06T05:16:54;0.70;99.90
4279;DHT22;2153;47.744;10.580;2024-01-06T05:19:21;0.70;99.90
4279;DHT22;2153;47.744;10.580;2024-01-06T05:21:48;0.70;99.90
4279;DHT22;2153;47.744;10.580;2024-01-06T05:24:15;0.70;99.90
4279;DHT22;2153;47.744;10.580;2024-01-06T05:26:42;0.70;99.90
4279;DHT22;2153;47.744;10.580;2024-01-06T05:29:08;0.70;99.90
4279;DHT22;2153;47.744;10.580;2024-01-06T05:31:36;0.70;99.90
4279;DHT22;2153;47.744;10.580;2024-01-06T05:34:03;0.70;99.90
4279;DHT22;2153;47.744;10.580;2024-01-06T05:36:30;0.70;99.90
4279;DHT22;2153;47.744;10.580;2024-01-06T05:38:57;0.70;99.90
4279;DHT22;2153;47.744;10.580;2024-01-06T05:41:24;0.70;99.90
4279;DHT22;2153;47.744;10.580;2024-01-06T05:43:51;0.70;99.90
4279;DHT22;2153;47.744;10.580;2024-01-06T05:46:21;0.80;99.90
4279;DHT22;2153;47.744;10.580;2024-01-06T05:48:49;0.80;99.90
4279;DHT22;2153;47.744;10.580;2024-01-06T05:51:16;0.70;99.90
4279;DHT22;2153;47.744;10.580;2024-01-06T05:53:43;0.70;99.90
4279;DHT22;2153;47.744;10.580;2024-01-06T05:56:10;0.70;99.90
4279;DHT22;2153;47.744;10.580;2024-01-06T05:58:36;0.70;99.90
4279;DHT22;2153;47.744;10.580;2024-01-06T06:01:03;0.80;99.90
4279;DHT22;2153;47.744;10.580;2024-01-06T06:03:30;0.80;99.90
4279;DHT22;2153;47.744;10.580;2024-01-06T06:05:58;0.80;99.90
4279;DHT22;2153;47.744;10.580;2024-01-06T06:08:25;0.80;99.90
4279;DHT22;2153;47.744;10.580;2024-01-06T06:10:52;0.80;99.90
4279;DHT22;2153;47.744;10.580;2024-01-06T06:13:27;0.80;99.90
4279;DHT22;2153;47.744;10.580;2024-01-06T06:15:54;0.80;99.90
4279;DHT22;2153;47.744;10.580;2024-01-06T06:18:21;0.80;99.90
4279;DHT22;2153;47.744;10.580;2024-01-06T06:20:48;0.80;99.90
4279;DHT22;2153;47.744;10.580;2024-01-06T06:23:16;0.80;99.90
4279;DHT22;2153;47.744;10.580;2024-01-06T06:25:42;0.80;99.90
4279;DHT22;2153;47.744;10.580;2024-01-06T06:28:09;0.80;99.90
4279;DHT22;2153;47.744;10.580;2024-01-06T06:30:36;0.80;99.90
4279;DHT22;2153;47.744;10.580;2024-01-06T06:33:03;0.80;99.90
4279;DHT22;2153;47.744;10.580;2024-01-06T06:35:29;0.80;99.90
4279;DHT22;2153;47.744;10.580;2024-01-06T06:37:56;0.80;99.90
4279;DHT22;2153;47.744;10.580;2024-01-06T06:40:24;0.80;99.90
4279;DHT22;2153;47.744;10.580;2024-01-06T06:42:51;0.80;99.90
4279;DHT22;2153;47.744;10.580;2024-01-06T06:45:18;0.80;99.90
4279;DHT22;2153;47.744;10.580;2024-01-06T06:47:48;0.80;99.90
4279;DHT22;2153;47.744;10.580;2024-01-06T06:50:14;0.80;99.90
4279;DHT22;2153;47.744;10.580;2024-01-06T06:52:41;0.70;99.90
4279;DHT22;2153;47.744;10.580;2024-01-06T06:55:08;0.80;99.90
4279;DHT22;2153;47.744;10.580;2024-01-06T06:57:36;0.80;99.90
4279;DHT22;2153;47.744;10.580;2024-01-06T07:00:04;0.80;99.90
4279;DHT22;2153;47.744;10.580;2024-01-06T07:02:32;0.80;99.90
4279;DHT22;2153;47.744;10.580;2024-01-06T07:04:59;0.80;99.90
4279;DHT22;2153;47.744;10.580;2024-01-06T07:07:26;0.80;99.90
4279;DHT22;2153;47.744;10.580;2024-01-06T07:09:52;0.80;99.90
4279;DHT22;2153;47.744;10.580;2024-01-06T07:12:19;0.80;99.90
4279;DHT22;2153;47.744;10.580;2024-01-06T07:14:47;0.80;99.90
4279;DHT22;2153;47.744;10.580;2024-01-06T07:17:14;0.80;99.90
4279;DHT22;2153;47.744;10.580;2024-01-06T07:19:40;0.80;99.90
4279;DHT22;2153;47.744;10.580;2024-01-06T07:22:07;0.80;99.90
4279;DHT22;2153;47.744;10.580;2024-01-06T07:24:34;0.80;99.90
4279;DHT22;2153;47.744;10.580;2024-01-06T07:27:01;0.80;99.90
4279;DHT22;2153;47.744;10.580;2024-01-06T07:29:29;0.80;99.90
4279;DHT22;2153;47.744;10.580;2024-01-06T07:31:57;0.80;99.90
4279;DHT22;2153;47.744;10.580;2024-01-06T07:34:24;0.80;99.90
4279;DHT22;2153;47.744;10.580;2024-01-06T07:36:51;0.80;99.90
4279;DHT22;2153;47.744;10.580;2024-01-06T07:39:18;0.80;99.90
4279;DHT22;2153;47.744;10.580;2024-01-06T07:41:44;0.80;99.90
4279;DHT22;2153;47.744;10.580;2024-01-06T07:44:11;0.80;99.90
4279;DHT22;2153;47.744;10.580;2024-01-06T07:46:38;0.80;99.90
4279;DHT22;2153;47.744;10.580;2024-01-06T07:49:07;0.80;99.90
4279;DHT22;2153;47.744;10.580;2024-01-06T07:51:33;0.90;99.90
4279;DHT22;2153;47.744;10.580;2024-01-06T07:54:00;0.80;99.90
4279;DHT22;2153;47.744;10.580;2024-01-06T07:56:27;0.80;99.90
4279;DHT22;2153;47.744;10.580;2024-01-06T07:58:54;0.80;99.90
4279;DHT22;2153;47.744;10.580;2024-01-06T08:01:21;0.90;99.90
4279;DHT22;2153;47.744;10.580;2024-01-06T08:03:47;0.90;99.90
4279;DHT22;2153;47.744;10.580;2024-01-06T08:06:15;0.90;99.90
4279;DHT22;2153;47.744;10.580;2024-01-06T08:08:42;0.80;99.90
4279;DHT22;2153;47.744;10.580;2024-01-06T08:11:09;0.80;99.90
4279;DHT22;2153;47.744;10.580;2024-01-06T08:13:36;0.80;99.90
4279;DHT22;2153;47.744;10.580;2024-01-06T08:16:03;0.90;99.90
4279;DHT22;2153;47.744;10.580;2024-01-06T08:18:29;0.80;99.90
4279;DHT22;2153;47.744;10.580;2024-01-06T08:20:56;0.80;99.90
4279;DHT22;2153;47.744;10.580;2024-01-06T08:23:25;0.90;99.90
4279;DHT22;2153;47.744;10.580;2024-01-06T08:25:51;0.90;99.90
4279;DHT22;2153;47.744;10.580;2024-01-06T08:28:18;0.90;99.90
4279;DHT22;2153;47.744;10.580;2024-01-06T08:30:45;1.00;99.90
4279;DHT22;2153;47.744;10.580;2024-01-06T08:33:12;0.90;99.90
4279;DHT22;2153;47.744;10.580;2024-01-06T08:35:38;0.90;99.90
4279;DHT22;2153;47.744;10.580;2024-01-06T08:38:05;0.90;99.90
4279;DHT22;2153;47.744;10.580;2024-01-06T08:40:34;0.90;99.90
4279;DHT22;2153;47.744;10.580;2024-01-06T08:43:00;1.00;99.90
4279;DHT22;2153;47.744;10.580;2024-01-06T08:45:27;1.00;99.90
4279;DHT22;2153;47.744;10.580;2024-01-06T08:47:54;1.00;99.90
4279;DHT22;2153;47.744;10.580;2024-01-06T08:50:20;1.00;99.90
4279;DHT22;2153;47.744;10.580;2024-01-06T08:52:47;1.00;99.90
4279;DHT22;2153;47.744;10.580;2024-01-06T08:55:14;0.90;99.90
4279;DHT22;2153;47.744;10.580;2024-01-06T08:57:43;0.90;99.90
4279;DHT22;2153;47.744;10.580;2024-01-06T09:00:10;0.90;99.90
4279;DHT22;2153;47.744;10.580;2024-01-06T09:02:37;1.00;99.90
4279;DHT22;2153;47.744;10.580;2024-01-06T09:05:05;1.00;99.90
4279;DHT22;2153;47.744;10.580;2024-01-06T09:07:31;1.10;99.90
4279;DHT22;2153;47.744;10.580;2024-01-06T09:09:58;1.10;99.90
4279;DHT22;2153;47.744;10.580;2024-01-06T09:12:25;1.10;99.90
4279;DHT22;2153;47.744;10.580;2024-01-06T09:14:53;1.10;99.90
4279;DHT22;2153;47.744;10.580;2024-01-06T09:17:20;1.10;99.90
4279;DHT22;2153;47.744;10.580;2024-01-06T09:19:48;1.00;99.90
4279;DHT22;2153;47.744;10.580;2024-01-06T09:22:14;1.00;99.90
4279;DHT22;2153;47.744;10.580;2024-01-06T09:24:41;1.00;99.90
4279;DHT22;2153;47.744;10.580;2024-01-06T09:27:08;1.00;99.90
4279;DHT22;2153;47.744;10.580;2024-01-06T09:29:35;1.00;99.90
4279;DHT22;2153;47.744;10.580;2024-01-06T09:32:03;1.00;99.90
4279;DHT22;2153;47.744;10.580;2024-01-06T09:34:30;1.10;99.90
4279;DHT22;2153;47.744;10.580;2024-01-06T09:36:57;1.20;99.90
4279;DHT22;2153;47.744;10.580;2024-01-06T09:39:23;1.20;99.90
4279;DHT22;2153;47.744;10.580;2024-01-06T09:41:50;1.20;99.90
4279;DHT22;2153;47.744;10.580;2024-01-06T09:44:17;1.20;99.90
4279;DHT22;2153;47.744;10.580;2024-01-06T09:46:44;1.10;99.90
4279;DHT22;2153;47.744;10.580;2024-01-06T09:49:12;1.10;99.90
4279;DHT22;2153;47.744;10.580;2024-01-06T09:51:40;1.20;99.90
4279;DHT22;2153;47.744;10.580;2024-01-06T09:54:09;1.30;99.90
4279;DHT22;2153;47.744;10.580;2024-01-06T09:56:36;1.30;99.90
4279;DHT22;2153;47.744;10.580;2024-01-06T09:59:03;1.40;99.90
4279;DHT22;2153;47.744;10.580;2024-01-06T10:01:30;1.40;99.90
4279;DHT22;2153;47.744;10.580;2024-01-06T10:03:57;1.50;99.90
4279;DHT22;2153;47.744;10.580;2024-01-06T10:06:25;1.50;99.90
4279;DHT22;2153;47.744;10.580;2024-01-06T10:08:52;1.60;99.90
4279;DHT22;2153;47.744;10.580;2024-01-06T10:11:19;1.60;99.90
4279;DHT22;2153;47.744;10.580;2024-01-06T10:13:48;1.60;99.90
4279;DHT22;2153;47.744;10.580;2024-01-06T10:16:15;1.60;99.90
4279;DHT22;2153;47.744;10.580;2024-01-06T10:18:44;1.70;99.90
4279;DHT22;2153;47.744;10.580;2024-01-06T10:21:10;1.70;99.90
4279;DHT22;2153;47.744;10.580;2024-01-06T10:23:39;1.70;99.90
4279;DHT22;2153;47.744;10.580;2024-01-06T10:26:07;1.60;99.90
4279;DHT22;2153;47.744;10.580;2024-01-06T10:28:33;1.60;99.90
4279;DHT22;2153;47.744;10.580;2024-01-06T10:31:00;1.60;99.90
4279;DHT22;2153;47.744;10.580;2024-01-06T10:33:27;1.60;99.90
4279;DHT22;2153;47.744;10.580;2024-01-06T10:35:54;1.50;99.90
4279;DHT22;2153;47.744;10.580;2024-01-06T10:38:21;1.50;99.90
4279;DHT22;2153;47.744;10.580;2024-01-06T10:40:59;1.50;99.90
4279;DHT22;2153;47.744;10.580;2024-01-06T10:43:26;1.50;99.90
4279;DHT22;2153;47.744;10.580;2024-01-06T10:45:55;1.70;99.90
4279;DHT22;2153;47.744;10.580;2024-01-06T10:48:25;1.70;99.90
4279;DHT22;2153;47.744;10.580;2024-01-06T10:50:52;1.90;99.90
4279;DHT22;2153;47.744;10.580;2024-01-06T10:53:20;1.90;99.90
4279;DHT22;2153;47.744;10.580;2024-01-06T10:55:49;1.90;99.90
4279;DHT22;2153;47.744;10.580;2024-01-06T10:58:18;2.00;99.90
4279;DHT22;2153;47.744;10.580;2024-01-06T11:00:45;2.00;99.90
4279;DHT22;2153;47.744;10.580;2024-01-06T11:03:13;2.00;99.90
4279;DHT22;2153;47.744;10.580;2024-01-06T11:05:41;2.00;99.90
4279;DHT22;2153;47.744;10.580;2024-01-06T11:08:08;2.00;99.90
4279;DHT22;2153;47.744;10.580;2024-01-06T11:10:36;2.00;99.90
4279;DHT22;2153;47.744;10.580;2024-01-06T11:13:09;2.10;99.90
4279;DHT22;2153;47.744;10.580;2024-01-06T11:15:42;2.20;99.90
4279;DHT22;2153;47.744;10.580;2024-01-06T11:18:09;2.20;99.90
4279;DHT22;2153;47.744;10.580;2024-01-06T11:20:35;2.30;99.90
4279;DHT22;2153;47.744;10.580;2024-01-06T11:23:18;2.30;99.90
4279;DHT22;2153;47.744;10.580;2024-01-06T11:25:46;2.30;99.90
4279;DHT22;2153;47.744;10.580;2024-01-06T11:28:13;2.20;99.90
4279;DHT22;2153;47.744;10.580;2024-01-06T11:30:41;2.30;99.90
4279;DHT22;2153;47.744;10.580;2024-01-06T11:33:08;2.20;99.90
4279;DHT22;2153;47.744;10.580;2024-01-06T11:35:37;2.20;99.90
4279;DHT22;2153;47.744;10.580;2024-01-06T11:38:06;2.30;99.90
4279;DHT22;2153;47.744;10.580;2024-01-06T11:40:34;2.30;99.90
4279;DHT22;2153;47.744;10.580;2024-01-06T11:43:03;2.30;99.90
4279;DHT22;2153;47.744;10.580;2024-01-06T11:45:31;2.30;99.90
4279;DHT22;2153;47.744;10.580;2024-01-06T11:48:00;2.30;99.90
4279;DHT22;2153;47.744;10.580;2024-01-06T11:50:28;2.30;99.90
4279;DHT22;2153;47.744;10.580;2024-01-06T11:52:55;2.30;99.90
4279;DHT22;2153;47.744;10.580;2024-01-06T11:55:22;2.30;99.90
4279;DHT22;2153;47.744;10.580;2024-01-06T11:57:49;2.30;99.90
4279;DHT22;2153;47.744;10.580;2024-01-06T12:00:16;2.30;99.90
4279;DHT22;2153;47.744;10.580;2024-01-06T12:02:43;2.30;99.90
4279;DHT22;2153;47.744;10.580;2024-01-06T12:05:15;2.30;99.90
4279;DHT22;2153;47.744;10.580;2024-01-06T12:07:43;2.30;99.90
4279;DHT22;2153;47.744;10.580;2024-01-06T12:10:10;2.20;99.90
4279;DHT22;2153;47.744;10.580;2024-01-06T12:12:38;2.20;99.90
4279;DHT22;2153;47.744;10.580;2024-01-06T12:15:05;2.20;99.90
4279;DHT22;2153;47.744;10.580;2024-01-06T12:17:35;2.20;99.90
4279;DHT22;2153;47.744;10.580;2024-01-06T12:20:03;2.20;99.90
4279;DHT22;2153;47.744;10.580;2024-01-06T12:22:31;2.10;99.90
4279;DHT22;2153;47.744;10.580;2024-01-06T12:24:59;2.00;99.90
4279;DHT22;2153;47.744;10.580;2024-01-06T12:27:26;2.10;99.90
4279;DHT22;2153;47.744;10.580;2024-01-06T12:29:52;2.10;99.90
4279;DHT22;2153;47.744;10.580;2024-01-06T12:32:19;2.10;99.90
4279;DHT22;2153;47.744;10.580;2024-01-06T12:34:46;2.00;99.90
4279;DHT22;2153;47.744;10.580;2024-01-06T12:37:13;2.00;99.90
4279;DHT22;2153;47.744;10.580;2024-01-06T12:39:41;2.00;99.90
4279;DHT22;2153;47.744;10.580;2024-01-06T12:42:10;1.90;99.90
4279;DHT22;2153;47.744;10.580;2024-01-06T12:44:37;1.90;99.90
4279;DHT22;2153;47.744;10.580;2024-01-06T12:47:05;1.90;99.90
4279;DHT22;2153;47.744;10.580;2024-01-06T12:49:32;1.90;99.90
4279;DHT22;2153;47.744;10.580;2024-01-06T12:51:58;2.00;99.90
4279;DHT22;2153;47.744;10.580;2024-01-06T12:54:25;2.00;99.90
4279;DHT22;2153;47.744;10.580;2024-01-06T12:56:53;2.00;99.90
4279;DHT22;2153;47.744;10.580;2024-01-06T12:59:20;2.00;99.90
4279;DHT22;2153;47.744;10.580;2024-01-06T13:01:46;2.00;99.90
4279;DHT22;2153;47.744;10.580;2024-01-06T13:04:14;2.00;99.90
4279;DHT22;2153;47.744;10.580;2024-01-06T13:06:41;2.00;99.90
4279;DHT22;2153;47.744;10.580;2024-01-06T13:09:08;2.00;99.90
4279;DHT22;2153;47.744;10.580;2024-01-06T13:11:38;2.00;99.90
4279;DHT22;2153;47.744;10.580;2024-01-06T13:14:06;2.00;99.90
4279;DHT22;2153;47.744;10.580;2024-01-06T13:16:32;2.00;99.90
4279;DHT22;2153;47.744;10.580;2024-01-06T13:18:59;1.90;99.90
4279;DHT22;2153;47.744;10.580;2024-01-06T13:21:27;1.90;99.90
4279;DHT22;2153;47.744;10.580;2024-01-06T13:23:55;2.00;99.90
4279;DHT22;2153;47.744;10.580;2024-01-06T13:26:26;2.00;99.90
4279;DHT22;2153;47.744;10.580;2024-01-06T13:28:53;1.90;99.90
4279;DHT22;2153;47.744;10.580;2024-01-06T13:31:21;1.90;99.90
4279;DHT22;2153;47.744;10.580;2024-01-06T13:33:50;1.90;99.90
4279;DHT22;2153;47.744;10.580;2024-01-06T13:36:17;1.90;99.90
4279;DHT22;2153;47.744;10.580;2024-01-06T13:38:44;1.90;99.90
4279;DHT22;2153;47.744;10.580;2024-01-06T13:41:10;1.80;99.90
4279;DHT22;2153;47.744;10.580;2024-01-06T13:43:37;1.80;99.90
4279;DHT22;2153;47.744;10.580;2024-01-06T13:46:04;1.80;99.90
4279;DHT22;2153;47.744;10.580;2024-01-06T13:48:32;1.70;99.90
4279;DHT22;2153;47.744;10.580;2024-01-06T13:50:59;1.70;99.90
4279;DHT22;2153;47.744;10.580;2024-01-06T13:53:25;1.50;99.90
4279;DHT22;2153;47.744;10.580;2024-01-06T13:55:52;1.50;99.90
4279;DHT22;2153;47.744;10.580;2024-01-06T13:58:19;1.40;99.90
4279;DHT22;2153;47.744;10.580;2024-01-06T14:00:45;1.50;99.90
4279;DHT22;2153;47.744;10.580;2024-01-06T14:03:13;1.50;99.90
4279;DHT22;2153;47.744;10.580;2024-01-06T14:05:41;1.50;99.90
4279;DHT22;2153;47.744;10.580;2024-01-06T14:08:08;1.40;99.90
4279;DHT22;2153;47.744;10.580;2024-01-06T14:10:35;1.40;99.90
4279;DHT22;2153;47.744;10.580;2024-01-06T14:13:03;1.40;99.90
4279;DHT22;2153;47.744;10.580;2024-01-06T14:15:30;1.40;99.90
4279;DHT22;2153;47.744;10.580;2024-01-06T14:17:58;1.40;99.90
4279;DHT22;2153;47.744;10.580;2024-01-06T14:20:25;1.40;99.90
4279;DHT22;2153;47.744;10.580;2024-01-06T14:22:54;1.40;99.90
4279;DHT22;2153;47.744;10.580;2024-01-06T14:25:21;1.50;99.90
4279;DHT22;2153;47.744;10.580;2024-01-06T14:27:47;1.50;99.90
4279;DHT22;2153;47.744;10.580;2024-01-06T14:30:14;1.50;99.90
4279;DHT22;2153;47.744;10.580;2024-01-06T14:32:41;1.50;99.90
4279;DHT22;2153;47.744;10.580;2024-01-06T14:35:08;1.50;99.90
4279;DHT22;2153;47.744;10.580;2024-01-06T14:37:36;1.40;99.90
4279;DHT22;2153;47.744;10.580;2024-01-06T14:40:07;1.40;99.90
4279;DHT22;2153;47.744;10.580;2024-01-06T14:42:33;1.30;99.90
4279;DHT22;2153;47.744;10.580;2024-01-06T14:45:01;1.30;99.90
4279;DHT22;2153;47.744;10.580;2024-01-06T14:47:28;1.30;99.90
4279;DHT22;2153;47.744;10.580;2024-01-06T14:49:54;1.30;99.90
4279;DHT22;2153;47.744;10.580;2024-01-06T14:52:21;1.30;99.90
4279;DHT22;2153;47.744;10.580;2024-01-06T14:54:48;1.20;99.90
4279;DHT22;2153;47.744;10.580;2024-01-06T14:57:16;1.30;99.90
4279;DHT22;2153;47.744;10.580;2024-01-06T14:59:43;1.30;99.90
4279;DHT22;2153;47.744;10.580;2024-01-06T15:02:10;1.30;99.90
4279;DHT22;2153;47.744;10.580;2024-01-06T15:04:37;1.20;99.90
4279;DHT22;2153;47.744;10.580;2024-01-06T15:07:04;1.20;99.90
4279;DHT22;2153;47.744;10.580;2024-01-06T15:09:31;1.20;99.90
4279;DHT22;2153;47.744;10.580;2024-01-06T15:11:57;1.20;99.90
4279;DHT22;2153;47.744;10.580;2024-01-06T15:14:25;1.20;99.90
4279;DHT22;2153;47.744;10.580;2024-01-06T15:16:52;1.20;99.90
4279;DHT22;2153;47.744;10.580;2024-01-06T15:19:19;1.10;99.90
4279;DHT22;2153;47.744;10.580;2024-01-06T15:21:47;1.20;99.90
4279;DHT22;2153;47.744;10.580;2024-01-06T15:24:15;1.20;99.90
4279;DHT22;2153;47.744;10.580;2024-01-06T15:26:43;1.10;99.90
4279;DHT22;2153;47.744;10.580;2024-01-06T15:29:10;1.10;99.90
4279;DHT22;2153;47.744;10.580;2024-01-06T15:31:38;1.10;99.90
4279;DHT22;2153;47.744;10.580;2024-01-06T15:34:04;1.10;99.90
4279;DHT22;2153;47.744;10.580;2024-01-06T15:36:31;1.10;99.90
4279;DHT22;2153;47.744;10.580;2024-01-06T15:38:57;1.10;99.90
4279;DHT22;2153;47.744;10.580;2024-01-06T15:41:24;1.10;99.90
4279;DHT22;2153;47.744;10.580;2024-01-06T15:43:51;1.10;99.90
4279;DHT22;2153;47.744;10.580;2024-01-06T15:46:17;1.10;99.90
4279;DHT22;2153;47.744;10.580;2024-01-06T15:48:47;1.10;99.90
4279;DHT22;2153;47.744;10.580;2024-01-06T15:51:14;1.00;99.90
4279;DHT22;2153;47.744;10.580;2024-01-06T15:53:41;1.00;99.90
4279;DHT22;2153;47.744;10.580;2024-01-06T15:56:07;1.00;99.90
4279;DHT22;2153;47.744;10.580;2024-01-06T15:58:34;1.00;99.90
4279;DHT22;2153;47.744;10.580;2024-01-06T16:01:00;0.90;99.90